X  SluitMETAR luchtvaart weer gegevens      EHAM Amsterdam Schiphol

Temperatuur

16°C Temperatuur

10°C Dauwpunt

68% Vochtigheid



Wind

10 KM/U

 6 MPH

 3 M/S

 5 KTS



320°
Noord West
Huidig weer

Wat bewolking Wat bewolking
Luchtdruk 1029.92 (hPa) - 30.41 (in)
Zicht 6.2 (mi) - 10 (km)
Vliegveld
Vliegveld code EHAM

Locatie Amsterdam Schiphol 80 (km)

Metar:
EHAM 191455Z 32005KT 290V350 9999 FEW026 SCT040 16/10 Q1030 NOSIG

Tijd: 19-09-2019 16:55